Time;durP1;ratioP1;P1;durP2;ratioP2;P2;SDS_P1;SDS_P2;PMS_P1;PMS_P2;Temp;Humidity;BMP_temperature;BMP_pressure;BME280_temperature;BME280_humidity;BME280_pressure;Samples;Min_cycle;Max_cycle;Signal;HPM_P1;HPM_P2
2023/02/11 00:00:53;;;;;;;13.47;5.83;;;;;5.40;103011.00;;;;10011131;29;20193;-77
2023/02/11 00:05:57;;;;;;;9.67;5.93;;;;;5.30;102993.00;;;;10010496;29;20204;-77
2023/02/11 00:10:59;;;;;;;12.70;6.10;;;;;5.20;103015.00;;;;10040079;29;20230;-77
2023/02/11 00:16:09;;;;;;;18.63;6.70;;;;;5.10;103009.00;;;;10024261;29;20229;-77
2023/02/11 00:21:16;;;;;;;15.47;6.77;;;;;5.00;102999.00;;;;10040887;29;20326;-77
2023/02/11 00:26:24;;;;;;;15.23;6.63;;;;;4.90;102999.00;;;;10016699;29;20260;-77
2023/02/11 00:31:27;;;;;;;8.07;6.07;;;;;4.90;103007.00;;;;10068851;29;20208;-77
2023/02/11 00:36:29;;;;;;;13.03;6.10;;;;;4.80;103005.00;;;;10084683;29;20273;-77
2023/02/11 00:41:31;;;;;;;16.70;7.00;;;;;4.80;102997.00;;;;10053725;29;20197;-77
2023/02/11 00:46:33;;;;;;;11.67;7.00;;;;;4.80;102981.00;;;;10068332;29;20193;-77
2023/02/11 00:51:35;;;;;;;15.43;6.30;;;;;4.80;102975.00;;;;10073657;29;20288;-77
2023/02/11 00:56:37;;;;;;;14.13;6.17;;;;;4.80;102956.00;;;;10016607;29;20220;-77
2023/02/11 01:01:40;;;;;;;9.57;5.37;;;;;4.70;102950.00;;;;10033683;29;20284;-77
2023/02/11 01:06:43;;;;;;;11.57;5.87;;;;;4.80;102945.00;;;;10031735;29;20196;-77
2023/02/11 01:11:45;;;;;;;13.57;6.03;;;;;5.00;102952.00;;;;9995900;29;20209;-79
2023/02/11 01:16:47;;;;;;;13.60;5.77;;;;;5.10;102956.00;;;;10006755;29;20218;-80
2023/02/11 01:21:49;;;;;;;13.90;6.93;;;;;5.10;102960.00;;;;10022084;29;20265;-77
2023/02/11 01:26:56;;;;;;;15.53;6.17;;;;;5.10;102961.00;;;;10004596;29;20217;-77
2023/02/11 01:31:59;;;;;;;12.43;6.33;;;;;5.10;102969.00;;;;10044355;29;20192;-78
2023/02/11 01:37:01;;;;;;;14.30;6.03;;;;;5.10;102957.00;;;;10029473;29;20223;-77
2023/02/11 01:42:04;;;;;;;13.10;5.67;;;;;5.10;102967.00;;;;10058239;29;20691;-78
2023/02/11 01:47:06;;;;;;;16.60;6.27;;;;;5.00;102966.00;;;;10028501;29;20197;-78
2023/02/11 01:52:18;;;;;;;11.60;5.77;;;;;5.00;102974.00;;;;10029353;29;20213;-77
2023/02/11 01:57:26;;;;;;;14.27;6.00;;;;;5.00;102982.00;;;;10043308;29;20236;-77
2023/02/11 02:02:35;;;;;;;15.90;6.37;;;;;5.10;102978.00;;;;10008522;29;20232;-78
2023/02/11 02:07:48;;;;;;;15.47;6.13;;;;;5.30;102980.00;;;;10040508;29;20655;-77
2023/02/11 02:12:50;;;;;;;16.97;7.47;;;;;5.40;102974.00;;;;10065924;29;20226;-77
2023/02/11 02:18:02;;;;;;;14.27;6.30;;;;;5.50;102964.00;;;;10066598;29;20220;-77
2023/02/11 02:23:43;;;;;;;24.33;6.57;;;;;5.60;102965.00;;;;10080999;29;20223;-77
2023/02/11 02:29:38;;;;;;;13.93;6.00;;;;;5.60;102951.00;;;;10053553;29;20284;-77
2023/02/11 02:34:49;;;;;;;16.97;6.53;;;;;5.60;102957.00;;;;9950073;29;20784;-77
2023/02/11 02:39:50;;;;;;;15.27;6.30;;;;;5.70;102948.00;;;;10032188;29;20316;-78
2023/02/11 02:44:54;;;;;;;14.60;6.57;;;;;5.70;102940.00;;;;10026141;29;20197;-78
2023/02/11 02:49:57;;;;;;;12.70;5.93;;;;;5.70;102956.00;;;;10012056;29;20192;-77
2023/02/11 02:55:19;;;;;;;15.97;5.97;;;;;5.70;102953.00;;;;10056774;29;20224;-77
2023/02/11 03:00:41;;;;;;;16.53;5.97;;;;;5.80;102946.00;;;;10008125;29;20193;-77
2023/02/11 03:06:03;;;;;;;13.03;6.10;;;;;5.80;102955.00;;;;10040576;29;20201;-77
2023/02/11 03:11:08;;;;;;;11.13;5.87;;;;;5.80;102951.00;;;;10026085;29;20645;-78
2023/02/11 03:16:21;;;;;;;12.60;5.63;;;;;5.80;102947.00;;;;10025644;29;20320;-78
2023/02/11 03:21:24;;;;;;;10.97;5.37;;;;;5.90;102943.00;;;;10041042;29;20216;-77
2023/02/11 03:26:37;;;;;;;14.43;6.00;;;;;5.90;102940.00;;;;10025662;29;20225;-78
2023/02/11 03:31:51;;;;;;;10.00;5.37;;;;;5.90;102940.00;;;;10025258;29;20213;-77
2023/02/11 03:36:58;;;;;;;15.93;5.93;;;;;5.90;102932.00;;;;10028156;29;20228;-77
2023/02/11 03:42:02;;;;;;;15.73;6.20;;;;;5.90;102936.00;;;;10047710;29;20211;-77
2023/02/11 03:47:08;;;;;;;13.40;6.30;;;;;6.00;102939.00;;;;10048740;29;20196;-77
2023/02/11 03:52:12;;;;;;;18.97;6.93;;;;;6.00;102943.00;;;;10032601;29;20231;-76
2023/02/11 03:57:13;;;;;;;17.30;7.47;;;;;6.00;102942.00;;;;10029301;29;20251;-77
2023/02/11 04:02:16;;;;;;;14.27;7.17;;;;;6.10;102939.00;;;;10046933;29;20538;-77
2023/02/11 04:07:18;;;;;;;13.17;6.87;;;;;6.10;102942.00;;;;10031530;29;20623;-78
2023/02/11 04:12:20;;;;;;;16.43;6.97;;;;;6.10;102945.00;;;;10061777;29;20245;-77
2023/02/11 04:17:21;;;;;;;13.83;7.80;;;;;6.10;102946.00;;;;10030464;29;20229;-77
2023/02/11 04:22:23;;;;;;;17.33;7.60;;;;;6.10;102963.00;;;;10031217;29;20280;-77
2023/02/11 04:27:25;;;;;;;13.40;7.60;;;;;6.10;102955.00;;;;10031269;29;20307;-77
2023/02/11 04:32:27;;;;;;;17.20;8.70;;;;;6.10;102958.00;;;;10018760;29;20569;-77
2023/02/11 04:37:29;;;;;;;13.70;7.73;;;;;6.10;102968.00;;;;10022662;29;20245;-77
2023/02/11 04:42:31;;;;;;;13.53;7.13;;;;;6.10;102968.00;;;;9991497;29;20212;-77
2023/02/11 04:47:33;;;;;;;15.10;7.23;;;;;6.10;102963.00;;;;10007312;29;20221;-77
2023/02/11 04:52:35;;;;;;;16.57;8.10;;;;;6.10;102946.00;;;;10007258;29;20209;-77
2023/02/11 04:57:37;;;;;;;22.20;8.67;;;;;6.10;102941.00;;;;10009912;29;20217;-77
2023/02/11 05:02:39;;;;;;;16.60;8.43;;;;;6.10;102931.00;;;;10060661;29;20200;-77
2023/02/11 05:07:41;;;;;;;15.00;8.70;;;;;6.10;102931.00;;;;10029978;29;20575;-77
2023/02/11 05:12:42;;;;;;;14.67;8.27;;;;;6.10;102935.00;;;;10059906;29;20207;-77
2023/02/11 05:17:44;;;;;;;17.40;8.57;;;;;6.10;102931.00;;;;10028501;29;20225;-77
2023/02/11 05:22:47;;;;;;;23.40;9.87;;;;;6.20;102925.00;;;;10028153;29;20249;-77
2023/02/11 05:27:49;;;;;;;18.60;9.43;;;;;6.20;102917.00;;;;10059038;29;20224;-77
2023/02/11 05:32:51;;;;;;;18.47;9.67;;;;;6.20;102926.00;;;;10012450;29;20690;-77
2023/02/11 05:37:53;;;;;;;19.43;9.93;;;;;6.20;102918.00;;;;10042894;29;20596;-77
2023/02/11 05:42:55;;;;;;;17.03;10.60;;;;;6.20;102909.00;;;;10090738;29;20216;-77
2023/02/11 05:47:57;;;;;;;19.17;10.87;;;;;6.20;102909.00;;;;10026889;29;20194;-76
2023/02/11 05:52:59;;;;;;;27.27;12.13;;;;;6.20;102914.00;;;;10027423;29;20546;-77
2023/02/11 05:58:01;;;;;;;21.50;10.63;;;;;6.30;102912.00;;;;10042438;29;20303;-77
2023/02/11 06:03:03;;;;;;;19.10;10.67;;;;;6.30;102919.00;;;;10004381;29;20213;-77
2023/02/11 06:08:05;;;;;;;20.27;11.80;;;;;6.30;102924.00;;;;10011311;29;20855;-77
2023/02/11 06:13:07;;;;;;;21.40;11.63;;;;;6.30;102923.00;;;;10028991;29;20241;-77
2023/02/11 06:18:10;;;;;;;24.73;10.80;;;;;6.30;102922.00;;;;10064034;29;20699;-77
2023/02/11 06:23:11;;;;;;;21.13;11.00;;;;;6.30;102911.00;;;;10079419;29;20180;-78
2023/02/11 06:28:13;;;;;;;24.83;11.27;;;;;6.30;102914.00;;;;10084007;29;20216;-77
2023/02/11 06:33:15;;;;;;;25.17;12.10;;;;;6.30;102912.00;;;;10076962;29;20288;-77
2023/02/11 06:38:17;;;;;;;31.33;12.43;;;;;6.30;102914.00;;;;10040549;29;20300;-77
2023/02/11 06:43:19;;;;;;;31.90;15.30;;;;;6.30;102921.00;;;;10040140;29;20775;-77
2023/02/11 06:48:22;;;;;;;22.30;12.30;;;;;6.30;102927.00;;;;10040712;29;20204;-77
2023/02/11 06:53:24;;;;;;;23.67;13.17;;;;;6.40;102922.00;;;;10025380;29;20197;-77
2023/02/11 06:58:26;;;;;;;25.87;14.07;;;;;6.40;102929.00;;;;10035609;29;20244;-77
2023/02/11 07:03:29;;;;;;;25.47;12.97;;;;;6.40;102924.00;;;;10001734;29;20207;-76
2023/02/11 07:08:35;;;;;;;22.83;13.40;;;;;6.40;102927.00;;;;10017419;29;20193;-77
2023/02/11 07:13:37;;;;;;;33.27;15.93;;;;;6.40;102939.00;;;;9987448;29;20207;-79
2023/02/11 07:18:40;;;;;;;27.80;14.87;;;;;6.40;102930.00;;;;9972708;29;20225;-77
2023/02/11 07:23:42;;;;;;;29.80;16.27;;;;;6.50;102934.00;;;;10062871;29;20243;-77
2023/02/11 07:28:44;;;;;;;30.63;15.13;;;;;6.50;102940.00;;;;10051186;29;20570;-77
2023/02/11 07:33:47;;;;;;;33.10;16.63;;;;;6.60;102947.00;;;;10006426;29;20216;-77
2023/02/11 07:38:49;;;;;;;30.80;16.43;;;;;6.60;102958.00;;;;10061966;29;20226;-77
2023/02/11 07:43:52;;;;;;;36.37;17.03;;;;;6.70;102972.00;;;;10062004;29;20724;-77
2023/02/11 07:48:54;;;;;;;39.10;16.83;;;;;6.70;102967.00;;;;10072569;29;20283;-77
2023/02/11 07:53:58;;;;;;;33.67;16.27;;;;;6.80;102983.00;;;;10023970;29;20201;-79
2023/02/11 07:59:02;;;;;;;42.97;17.67;;;;;6.80;102983.00;;;;10039090;29;20213;-77
2023/02/11 08:04:04;;;;;;;40.43;17.13;;;;;6.90;102983.00;;;;9991345;29;20197;-77
2023/02/11 08:09:08;;;;;;;32.20;16.50;;;;;6.90;102989.00;;;;10000973;29;20200;-77
2023/02/11 08:14:11;;;;;;;34.83;17.00;;;;;7.00;102993.00;;;;10000664;29;20577;-77
2023/02/11 08:19:14;;;;;;;56.70;24.13;;;;;7.00;103013.00;;;;10001147;29;20202;-77
2023/02/11 08:24:16;;;;;;;41.70;18.53;;;;;7.00;103009.00;;;;10019689;29;20224;-77
2023/02/11 08:29:18;;;;;;;37.63;16.47;;;;;7.10;103005.00;;;;9992758;29;20241;-77
2023/02/11 08:34:20;;;;;;;32.67;15.90;;;;;7.10;103005.00;;;;10000409;29;20243;-77
2023/02/11 08:39:22;;;;;;;35.20;17.17;;;;;7.20;103016.00;;;;10000090;29;20244;-77
2023/02/11 08:44:24;;;;;;;32.10;17.93;;;;;7.20;103020.00;;;;9974914;29;20233;-77
2023/02/11 08:49:26;;;;;;;40.13;17.83;;;;;7.20;103021.00;;;;9977187;29;20300;-77
2023/02/11 08:54:29;;;;;;;39.73;18.73;;;;;7.30;103022.00;;;;10038427;29;20204;-77
2023/02/11 08:59:32;;;;;;;44.50;20.30;;;;;7.30;103034.00;;;;10059450;29;20321;-77
2023/02/11 09:04:34;;;;;;;39.10;18.10;;;;;7.30;103021.00;;;;10043114;29;20199;-77
2023/02/11 09:09:35;;;;;;;41.50;19.17;;;;;7.30;103038.00;;;;10036107;29;20850;-77
2023/02/11 09:14:38;;;;;;;38.27;18.63;;;;;7.40;103049.00;;;;10081951;29;20199;-77
2023/02/11 09:19:40;;;;;;;44.83;20.03;;;;;7.50;103038.00;;;;10082084;29;20200;-77
2023/02/11 09:24:42;;;;;;;42.37;19.87;;;;;7.50;103049.00;;;;10066667;29;20248;-77
2023/02/11 09:29:43;;;;;;;45.67;20.53;;;;;7.60;103038.00;;;;10031927;29;20303;-77
2023/02/11 09:34:45;;;;;;;41.03;20.27;;;;;7.70;103044.00;;;;10014220;29;20198;-77
2023/02/11 09:39:47;;;;;;;47.07;20.90;;;;;7.80;103044.00;;;;9974291;29;20660;-77
2023/02/11 09:44:49;;;;;;;52.80;23.10;;;;;8.00;103046.00;;;;9989872;29;20190;-77
2023/02/11 09:49:59;;;;;;;47.00;22.50;;;;;8.20;103041.00;;;;10004553;29;20204;-77
2023/02/11 09:55:17;;;;;;;49.13;23.00;;;;;8.40;103043.00;;;;10015715;29;20308;-77
2023/02/11 10:01:13;;;;;;;44.23;20.83;;;;;8.50;103047.00;;;;9990118;29;20197;-77
2023/02/11 10:06:27;;;;;;;54.37;22.87;;;;;8.70;103049.00;;;;9977442;29;20210;-77
2023/02/11 10:11:45;;;;;;;52.40;23.03;;;;;8.90;103050.00;;;;9989013;29;20274;-77
2023/02/11 10:17:08;;;;;;;56.10;22.20;;;;;9.10;103058.00;;;;10042073;29;20277;-77
2023/02/11 10:22:21;;;;;;;55.43;21.90;;;;;9.30;103059.00;;;;10041544;29;20196;-77
2023/02/11 10:27:31;;;;;;;55.60;24.23;;;;;9.50;103072.00;;;;10031919;29;20227;-77
2023/02/11 10:32:51;;;;;;;50.07;22.63;;;;;9.30;103073.00;;;;10052568;29;20204;-77
2023/02/11 10:37:54;;;;;;;52.40;23.27;;;;;9.30;103071.00;;;;10077756;29;20220;-77
2023/02/11 10:43:03;;;;;;;47.27;22.17;;;;;9.50;103083.00;;;;10094572;29;20200;-77
2023/02/11 10:48:25;;;;;;;50.03;23.00;;;;;9.20;103086.00;;;;10062398;29;20711;-77
2023/02/11 10:53:28;;;;;;;54.23;24.27;;;;;9.00;103078.00;;;;10009181;29;20198;-77
2023/02/11 10:58:34;;;;;;;47.97;21.00;;;;;9.00;103087.00;;;;10006511;29;20205;-77
2023/02/11 11:03:44;;;;;;;56.80;24.30;;;;;8.90;103093.00;;;;9997057;29;20257;-77
2023/02/11 11:08:47;;;;;;;51.70;23.43;;;;;8.90;103087.00;;;;10023510;29;20241;-77
2023/02/11 11:13:52;;;;;;;46.40;22.23;;;;;8.90;103099.00;;;;9996127;29;20204;-77
2023/02/11 11:19:06;;;;;;;50.20;22.57;;;;;9.10;103089.00;;;;10020966;29;20209;-77
2023/02/11 11:24:21;;;;;;;46.03;22.53;;;;;9.10;103085.00;;;;10010673;29;20214;-77
2023/02/11 11:29:34;;;;;;;49.00;22.73;;;;;9.30;103083.00;;;;10002057;29;20220;-77
2023/02/11 11:34:40;;;;;;;45.17;21.60;;;;;9.50;103094.00;;;;9984056;29;20209;-77
2023/02/11 11:39:51;;;;;;;50.83;24.07;;;;;9.60;103077.00;;;;10013866;29;20557;-77
2023/02/11 11:45:01;;;;;;;48.97;22.70;;;;;9.70;103069.00;;;;10011022;29;20609;-76
2023/02/11 11:50:22;;;;;;;48.50;23.90;;;;;9.70;103076.00;;;;10008474;29;20208;-76
2023/02/11 11:55:28;;;;;;;52.00;22.37;;;;;9.80;103078.00;;;;9996064;29;20228;-77
2023/02/11 12:00:48;;;;;;;51.80;24.97;;;;;9.60;103078.00;;;;10017881;29;20222;-77
2023/02/11 12:06:06;;;;;;;48.40;23.70;;;;;9.60;103088.00;;;;10010565;29;20203;-78
2023/02/11 12:11:28;;;;;;;53.00;26.50;;;;;9.60;103074.00;;;;9995896;29;20193;-77
2023/02/11 12:16:33;;;;;;;46.80;23.50;;;;;9.50;103080.00;;;;9992350;29;20236;-77
2023/02/11 12:22:00;;;;;;;50.27;24.80;;;;;9.40;103093.00;;;;10032399;29;20197;-77
2023/02/11 12:27:17;;;;;;;50.03;23.43;;;;;9.40;103103.00;;;;10011973;29;20260;-77
2023/02/11 12:32:35;;;;;;;47.27;22.67;;;;;9.50;103099.00;;;;10035419;29;20204;-77
2023/02/11 12:38:05;;;;;;;56.30;25.80;;;;;9.50;103094.00;;;;10010772;29;20308;-77
2023/02/11 12:43:28;;;;;;;57.43;24.63;;;;;9.60;103097.00;;;;10020373;29;20228;-77
2023/02/11 12:49:09;;;;;;;57.87;26.03;;;;;9.50;103094.00;;;;10027646;29;20204;-77
2023/02/11 12:54:29;;;;;;;56.77;25.30;;;;;9.50;103088.00;;;;9985908;29;20292;-77
2023/02/11 12:59:48;;;;;;;49.83;23.83;;;;;9.50;103096.00;;;;10028253;29;20223;-77
2023/02/11 13:04:58;;;;;;;52.67;25.70;;;;;9.60;103078.00;;;;10025969;29;20851;-77
2023/02/11 13:10:12;;;;;;;48.40;24.90;;;;;9.70;103074.00;;;;10037502;29;20201;-77
2023/02/11 13:15:15;;;;;;;58.00;24.83;;;;;9.80;103068.00;;;;10018077;29;20560;-76
2023/02/11 13:20:47;;;;;;;48.37;24.47;;;;;9.60;103067.00;;;;10041359;29;20224;-76
2023/02/11 13:25:57;;;;;;;53.87;24.10;;;;;9.70;103063.00;;;;10006971;29;20217;-77
2023/02/11 13:31:05;;;;;;;51.93;24.50;;;;;9.70;103066.00;;;;10009112;29;20520;-77
2023/02/11 13:36:07;;;;;;;49.03;23.97;;;;;9.60;103056.00;;;;10043642;29;20259;-77
2023/02/11 13:41:23;;;;;;;47.20;22.90;;;;;9.60;103048.00;;;;10042212;29;20197;-77
2023/02/11 13:46:47;;;;;;;48.50;23.63;;;;;9.60;103051.00;;;;10041943;29;20688;-77
2023/02/11 13:51:51;;;;;;;44.43;22.37;;;;;9.50;103054.00;;;;10026256;29;20221;-77
2023/02/11 13:57:21;;;;;;;47.70;25.30;;;;;9.60;103050.00;;;;10008456;29;20249;-77
2023/02/11 14:13:46;;;;;;;55.67;28.97;;;;;9.50;103051.00;;;;10050618;29;20208;-76
2023/02/11 14:18:48;;;;;;;45.13;23.30;;;;;9.50;103058.00;;;;10038914;29;20565;-77
2023/02/11 14:23:54;;;;;;;44.97;22.97;;;;;9.50;103057.00;;;;10006228;29;20213;-77
2023/02/11 14:29:16;;;;;;;46.13;23.97;;;;;9.50;103058.00;;;;10030140;29;20589;-76
2023/02/11 14:34:45;;;;;;;49.33;25.40;;;;;9.50;103055.00;;;;10043430;29;20217;-78
2023/02/11 14:39:53;;;;;;;48.70;24.20;;;;;9.50;103053.00;;;;10017611;29;20285;-77
2023/02/11 14:44:57;;;;;;;49.77;24.27;;;;;9.50;103056.00;;;;10061231;29;20202;-76
2023/02/11 14:50:00;;;;;;;44.40;24.30;;;;;9.40;103060.00;;;;9989137;29;20190;-78
2023/02/11 14:55:20;;;;;;;55.53;24.73;;;;;9.30;103067.00;;;;10033382;29;20208;-79
2023/02/11 15:00:22;;;;;;;43.30;23.33;;;;;9.30;103062.00;;;;10028075;29;20253;-76
2023/02/11 15:05:27;;;;;;;48.57;25.67;;;;;9.20;103060.00;;;;10047186;29;20235;-77
2023/02/11 15:10:52;;;;;;;50.20;24.63;;;;;9.20;103060.00;;;;10035785;29;20189;-76
2023/02/11 15:15:59;;;;;;;45.27;24.13;;;;;9.20;103056.00;;;;10025066;29;20215;-77
2023/02/11 15:21:01;;;;;;;44.53;23.87;;;;;9.20;103068.00;;;;10033747;29;20193;-76
2023/02/11 15:26:12;;;;;;;45.43;24.73;;;;;9.20;103063.00;;;;10016175;29;20740;-78
2023/02/11 15:31:16;;;;;;;52.57;24.57;;;;;9.10;103073.00;;;;10020302;29;20640;-78
2023/02/11 15:36:22;;;;;;;45.63;24.10;;;;;9.10;103072.00;;;;10048570;29;20215;-78
2023/02/11 15:41:36;;;;;;;52.67;27.47;;;;;9.10;103081.00;;;;10038074;29;20200;-78
2023/02/11 15:46:39;;;;;;;42.33;25.23;;;;;9.00;103085.00;;;;10038442;29;20201;-78
2023/02/11 15:51:45;;;;;;;50.17;27.00;;;;;9.00;103082.00;;;;10035376;29;20189;-78
2023/02/11 15:56:51;;;;;;;48.40;25.23;;;;;8.90;103076.00;;;;10036950;29;20296;-78
2023/02/11 16:01:54;;;;;;;46.00;25.70;;;;;8.90;103068.00;;;;10006395;29;20205;-78
2023/02/11 16:06:56;;;;;;;57.87;25.40;;;;;8.90;103070.00;;;;10029848;29;20684;-78
2023/02/11 16:12:06;;;;;;;48.67;26.27;;;;;8.80;103076.00;;;;10019136;29;20193;-78
2023/02/11 16:17:12;;;;;;;52.03;26.57;;;;;8.80;103086.00;;;;10021947;29;20242;-78
2023/02/11 16:22:18;;;;;;;56.53;29.03;;;;;8.70;103084.00;;;;10043428;29;20235;-78
2023/02/11 16:27:29;;;;;;;57.73;27.63;;;;;8.70;103087.00;;;;10043213;29;20225;-78
2023/02/11 16:32:31;;;;;;;50.67;27.80;;;;;8.60;103090.00;;;;10026839;29;20205;-78
2023/02/11 16:37:34;;;;;;;55.97;28.07;;;;;8.60;103093.00;;;;10051252;29;20566;-78
2023/02/11 16:42:36;;;;;;;61.70;28.50;;;;;8.50;103099.00;;;;10066114;29;20288;-78
2023/02/11 16:47:40;;;;;;;51.43;27.80;;;;;8.40;103097.00;;;;10025363;29;20265;-78
2023/02/11 16:52:45;;;;;;;49.63;27.03;;;;;8.40;103090.00;;;;10029948;29;20667;-78
2023/02/11 16:57:48;;;;;;;55.47;30.73;;;;;8.30;103108.00;;;;10048860;29;20217;-78
2023/02/11 17:02:51;;;;;;;56.57;29.07;;;;;8.30;103091.00;;;;10010984;29;20542;-78
2023/02/11 17:07:53;;;;;;;58.37;28.60;;;;;8.30;103103.00;;;;10026299;29;20201;-78
2023/02/11 17:12:55;;;;;;;55.80;30.57;;;;;8.30;103108.00;;;;10033229;29;20197;-78
2023/02/11 17:17:57;;;;;;;53.10;28.27;;;;;8.20;103105.00;;;;10043443;29;20236;-78
2023/02/11 17:22:59;;;;;;;52.97;27.90;;;;;8.20;103120.00;;;;10013512;29;20208;-78
2023/02/11 17:28:06;;;;;;;53.67;29.17;;;;;8.20;103110.00;;;;10032993;29;20214;-78
2023/02/11 17:33:08;;;;;;;57.07;30.23;;;;;8.20;103119.00;;;;9994599;29;20215;-78
2023/02/11 17:38:10;;;;;;;63.90;30.97;;;;;8.20;103124.00;;;;10012415;29;20213;-78
2023/02/11 17:43:12;;;;;;;59.60;30.87;;;;;8.20;103135.00;;;;10016959;29;20201;-78
2023/02/11 17:48:14;;;;;;;58.90;31.93;;;;;8.20;103133.00;;;;10044150;29;20660;-78
2023/02/11 17:53:15;;;;;;;59.53;30.37;;;;;8.20;103134.00;;;;10026925;29;20197;-78
2023/02/11 17:58:17;;;;;;;59.33;30.00;;;;;8.20;103144.00;;;;10048050;29;20209;-78
2023/02/11 18:03:19;;;;;;;55.33;30.07;;;;;8.20;103146.00;;;;10046199;29;20197;-78
2023/02/11 18:08:21;;;;;;;59.27;30.43;;;;;8.20;103155.00;;;;10021825;29;20308;-79
2023/02/11 18:13:23;;;;;;;56.23;31.27;;;;;8.20;103157.00;;;;10021738;29;20226;-78
2023/02/11 18:18:25;;;;;;;66.13;33.27;;;;;8.20;103159.00;;;;10050674;29;20209;-78
2023/02/11 18:23:28;;;;;;;62.50;31.90;;;;;8.20;103159.00;;;;10011515;29;20603;-79
2023/02/11 18:28:30;;;;;;;63.00;32.50;;;;;8.20;103164.00;;;;9961492;29;20231;-79
2023/02/11 18:33:33;;;;;;;65.20;32.50;;;;;8.10;103177.00;;;;10000813;29;20574;-78
2023/02/11 18:38:35;;;;;;;80.10;38.67;;;;;8.10;103177.00;;;;10025139;29;20224;-78
2023/02/11 18:43:38;;;;;;;66.47;33.93;;;;;8.10;103169.00;;;;10015454;29;20249;-78
2023/02/11 18:48:43;;;;;;;59.20;31.33;;;;;8.10;103169.00;;;;10027068;29;20200;-78
2023/02/11 18:53:45;;;;;;;59.37;31.57;;;;;8.00;103176.00;;;;10008840;29;20229;-78
2023/02/11 18:58:47;;;;;;;60.43;32.17;;;;;8.00;103168.00;;;;10030803;29;20223;-78
2023/02/11 19:03:50;;;;;;;66.20;33.07;;;;;8.00;103183.00;;;;10029761;29;20210;-78
2023/02/11 19:08:53;;;;;;;58.67;30.13;;;;;8.00;103188.00;;;;10028445;29;20705;-79
2023/02/11 19:13:59;;;;;;;59.73;29.30;;;;;8.00;103199.00;;;;10015725;29;20205;-78
2023/02/11 19:19:01;;;;;;;57.17;29.23;;;;;8.00;103194.00;;;;10013201;29;20208;-78
2023/02/11 19:24:07;;;;;;;67.20;31.17;;;;;8.00;103196.00;;;;10022500;29;20201;-78
2023/02/11 19:29:09;;;;;;;74.30;35.83;;;;;7.90;103195.00;;;;10055941;29;21544;-78
2023/02/11 19:34:13;;;;;;;65.97;33.53;;;;;7.90;103198.00;;;;10012792;29;20219;-79
2023/02/11 19:39:16;;;;;;;68.40;33.23;;;;;7.90;103201.00;;;;10003117;29;20832;-78
2023/02/11 19:44:17;;;;;;;67.70;32.83;;;;;7.90;103206.00;;;;10020008;29;20287;-78
2023/02/11 19:49:25;;;;;;;74.60;35.13;;;;;7.90;103201.00;;;;10023583;29;20200;-78
2023/02/11 19:54:30;;;;;;;78.53;37.10;;;;;7.80;103207.00;;;;10019965;29;20201;-79
2023/02/11 19:59:32;;;;;;;60.93;30.27;;;;;7.80;103211.00;;;;10023750;29;20202;-78
2023/02/11 20:04:33;;;;;;;71.83;34.87;;;;;7.80;103218.00;;;;9995522;29;20212;-79
2023/02/11 20:09:35;;;;;;;61.53;32.23;;;;;7.80;103218.00;;;;10023639;29;20734;-79
2023/02/11 20:14:38;;;;;;;62.80;30.10;;;;;7.80;103213.00;;;;10020892;29;20201;-79
2023/02/11 20:19:40;;;;;;;59.70;30.13;;;;;7.80;103213.00;;;;10028271;29;20250;-79
2023/02/11 20:24:42;;;;;;;58.27;29.23;;;;;7.80;103203.00;;;;10029540;29;20205;-79
2023/02/11 20:29:44;;;;;;;57.97;29.97;;;;;7.80;103215.00;;;;10032767;29;20660;-78
2023/02/11 20:34:46;;;;;;;55.67;29.00;;;;;7.80;103211.00;;;;9983627;29;20585;-78
2023/02/11 20:39:49;;;;;;;57.20;27.03;;;;;7.90;103223.00;;;;10011424;29;20215;-78
2023/02/11 20:44:52;;;;;;;53.30;27.27;;;;;7.90;103224.00;;;;10016775;29;20580;-78
2023/02/11 20:49:54;;;;;;;62.60;28.97;;;;;7.90;103230.00;;;;10012543;29;20269;-78
2023/02/11 20:54:56;;;;;;;58.43;28.10;;;;;7.90;103227.00;;;;10041620;29;20273;-78
2023/02/11 20:59:58;;;;;;;54.43;28.47;;;;;7.90;103239.00;;;;10014800;29;20287;-78
2023/02/11 21:05:00;;;;;;;56.23;27.73;;;;;7.90;103244.00;;;;10027642;29;20296;-78
2023/02/11 21:10:02;;;;;;;56.03;27.50;;;;;7.90;103252.00;;;;10017115;29;20226;-78
2023/02/11 21:15:06;;;;;;;60.37;26.57;;;;;7.90;103257.00;;;;10025068;29;20670;-78
2023/02/11 21:20:09;;;;;;;51.40;26.23;;;;;7.90;103249.00;;;;10002444;29;20205;-78
2023/02/11 21:25:11;;;;;;;57.50;26.23;;;;;7.90;103256.00;;;;10021260;29;20236;-78
2023/02/11 21:30:13;;;;;;;49.37;25.30;;;;;7.90;103265.00;;;;10041245;29;20209;-78
2023/02/11 21:35:15;;;;;;;51.90;26.00;;;;;7.80;103272.00;;;;9991397;29;20224;-78
2023/02/11 21:40:18;;;;;;;49.03;26.17;;;;;7.80;103265.00;;;;9995181;29;20296;-78
2023/02/11 21:45:24;;;;;;;57.70;28.23;;;;;7.80;103270.00;;;;10018894;29;20285;-78
2023/02/11 21:50:26;;;;;;;48.63;24.60;;;;;7.80;103263.00;;;;10016478;29;20203;-78
2023/02/11 21:55:29;;;;;;;46.27;24.73;;;;;7.80;103270.00;;;;10030600;29;20208;-78
2023/02/11 22:00:31;;;;;;;48.67;25.30;;;;;7.80;103277.00;;;;10013295;29;21102;-79
2023/02/11 22:05:34;;;;;;;50.63;25.73;;;;;7.70;103274.00;;;;10036374;29;20201;-78
2023/02/11 22:10:36;;;;;;;51.63;26.07;;;;;7.70;103276.00;;;;10038351;29;20188;-78
2023/02/11 22:15:38;;;;;;;43.60;23.07;;;;;7.70;103273.00;;;;10009508;29;20201;-78
2023/02/11 22:20:40;;;;;;;50.80;24.20;;;;;7.70;103278.00;;;;10021563;29;20208;-79
2023/02/11 22:25:45;;;;;;;44.23;22.93;;;;;7.70;103272.00;;;;10027404;29;20344;-78
2023/02/11 22:30:55;;;;;;;39.90;22.47;;;;;7.60;103279.00;;;;10027036;29;20287;-79
2023/02/11 22:36:06;;;;;;;37.97;21.10;;;;;7.60;103275.00;;;;10049113;29;20310;-79
2023/02/11 22:41:10;;;;;;;41.23;21.87;;;;;7.60;103282.00;;;;10018291;29;20282;-79
2023/02/11 22:46:15;;;;;;;40.93;22.03;;;;;7.50;103269.00;;;;10012873;29;20198;-79
2023/02/11 22:51:21;;;;;;;41.60;21.20;;;;;7.50;103269.00;;;;10005193;29;20239;-78
2023/02/11 22:56:24;;;;;;;35.17;20.80;;;;;7.50;103266.00;;;;10045796;29;20208;-78
2023/02/11 23:01:41;;;;;;;39.70;20.67;;;;;7.50;103273.00;;;;10020930;29;20243;-79
2023/02/11 23:06:44;;;;;;;32.23;18.93;;;;;7.50;103270.00;;;;10052379;29;20692;-78
2023/02/11 23:11:48;;;;;;;34.67;19.50;;;;;7.40;103280.00;;;;10075994;29;20786;-78
2023/02/11 23:16:50;;;;;;;31.37;17.33;;;;;7.40;103291.00;;;;10060013;29;20691;-78
2023/02/11 23:21:52;;;;;;;28.50;17.60;;;;;7.40;103288.00;;;;10059242;29;20231;-78
2023/02/11 23:26:54;;;;;;;25.93;16.20;;;;;7.30;103282.00;;;;10032875;29;20224;-78
2023/02/11 23:31:56;;;;;;;21.93;12.43;;;;;7.30;103289.00;;;;10068682;29;20208;-78
2023/02/11 23:36:59;;;;;;;17.57;12.63;;;;;7.40;103285.00;;;;10037468;29;20684;-78
2023/02/11 23:42:02;;;;;;;18.10;12.70;;;;;7.40;103288.00;;;;10037365;29;20225;-78
2023/02/11 23:47:03;;;;;;;22.23;13.67;;;;;7.30;103281.00;;;;10039179;29;20205;-79
2023/02/11 23:52:06;;;;;;;19.63;12.63;;;;;7.30;103280.00;;;;10090543;29;20216;-78
2023/02/11 23:57:07;;;;;;;16.67;11.87;;;;;7.30;103287.00;;;;10022580;29;20217;-78
